Terminal Aerodrome Forecast
Issued by NWS Wilmington, NC

Home | Current Version | Previous Version | Text Only | Print | Product List | Glossary On
Versions: 1 2 3 4 5 6 7 8 9 10 11 12 13 14 15 16 17 18 19 20 21 22 23 24
545
FTUS42 KILM 031755 CCA
TAFILM
TAF COR
KILM 031755Z 0318/0418 20009KT P6SM VCSH SCT020 BKN040 BKN150
      TEMPO 0318/0320 BKN025
     FM032000 22011KT P6SM VCSH SCT025 BKN040
      TEMPO 0321/0401 BKN025 OVC040
     FM040100 22006KT P6SM VCSH SCT050 BKN100
     FM040500 22006KT 5SM BR VCSH SCT015 BKN050
      TEMPO 0406/0410 5SM TS SCT015 BKN025CB
     FM041000 25005KT 4SM BR VCSH SCT007 BKN050=

USA.gov is the U.S. government's official web portal to all federal, state and local government web resources and services.